createdAt,value
2023-01-23T00:02:27.259Z,101055.06
2023-01-23T00:04:57.299Z,101049.03
2023-01-23T00:07:27.203Z,101064.94
2023-01-23T00:09:57.250Z,101072.97
2023-01-23T00:12:27.811Z,101065.63
2023-01-23T00:14:57.870Z,101078.53
2023-01-23T00:17:31.837Z,101078.25
2023-01-23T00:20:02.519Z,101079.06
2023-01-23T00:22:33.217Z,101091.09
2023-01-23T00:25:03.038Z,101083.97
2023-01-23T00:27:33.228Z,101099.06
2023-01-23T00:30:03.415Z,101091.91
2023-01-23T00:32:33.515Z,101096.06
2023-01-23T00:35:06.308Z,101099.88
2023-01-23T00:37:36.385Z,101102.09
2023-01-23T00:40:06.530Z,101108.41
2023-01-23T00:42:36.534Z,101108.41
2023-01-23T00:45:06.718Z,101111.16
2023-01-23T00:47:36.578Z,101113.38
2023-01-23T00:50:06.707Z,101112.84
2023-01-23T00:52:36.579Z,101121.94
2023-01-23T00:55:07.522Z,101134.03
2023-01-23T00:57:37.561Z,101138.09
2023-01-23T01:00:07.961Z,101131.22
2023-01-23T01:02:38.187Z,101139.75
2023-01-23T01:05:08.997Z,101148.53
2023-01-23T01:07:39.185Z,101142.81
2023-01-23T01:10:09.341Z,101154.03
2023-01-23T01:12:40.699Z,101146.88
2023-01-23T01:15:12.097Z,101148.31
2023-01-23T01:17:42.062Z,101154.56
2023-01-23T01:20:13.217Z,101162.00
2023-01-23T01:22:43.266Z,101166.34
2023-01-23T01:25:13.449Z,101168.00
2023-01-23T01:27:43.649Z,101167.19
2023-01-23T01:30:15.647Z,101169.38
2023-01-23T01:32:46.117Z,101173.97
2023-01-23T01:35:16.892Z,101180.59
2023-01-23T01:37:46.852Z,101179.47
2023-01-23T01:40:31.095Z,101188.78
2023-01-23T01:43:04.713Z,101189.38
2023-01-23T01:46:05.540Z,101191.00
2023-01-23T01:48:50.605Z,101200.59
2023-01-23T01:51:20.681Z,101202.47
2023-01-23T01:53:57.933Z,101212.34
2023-01-23T01:56:30.251Z,101205.22
2023-01-23T01:59:03.014Z,101208.50
2023-01-23T02:01:33.494Z,101208.50
2023-01-23T02:04:07.719Z,101209.03
2023-01-23T02:06:37.925Z,101214.81
2023-01-23T02:09:12.541Z,101209.03
2023-01-23T02:11:42.977Z,101207.38
2023-01-23T02:14:14.398Z,101213.41
2023-01-23T02:16:52.425Z,101214.53
2023-01-23T02:19:50.135Z,101209.56
2023-01-23T02:22:52.614Z,101210.34
2023-01-23T02:25:29.532Z,101213.94
2023-01-23T02:27:59.949Z,101216.38
2023-01-23T02:30:32.196Z,101216.09
2023-01-23T02:33:15.149Z,101219.66
2023-01-23T02:35:45.496Z,101213.34
2023-01-23T02:38:17.109Z,101211.72
2023-01-23T02:40:47.410Z,101214.16
2023-01-23T02:43:28.379Z,101213.91
2023-01-23T02:46:13.203Z,101214.16
2023-01-23T02:48:43.463Z,101210.34
2023-01-23T02:51:13.815Z,101206.47
2023-01-23T02:53:44.754Z,101211.66
2023-01-23T02:56:14.948Z,101210.56
2023-01-23T02:59:04.377Z,101212.50
2023-01-23T03:01:38.010Z,101213.31
2023-01-23T03:04:08.727Z,101210.56
2023-01-23T03:06:39.963Z,101208.06
2023-01-23T03:09:14.940Z,101207.22
2023-01-23T03:11:47.101Z,101200.63
2023-01-23T03:14:22.668Z,101195.41
2023-01-23T03:16:54.883Z,101195.13
2023-01-23T03:19:31.889Z,101195.94
2023-01-23T03:22:02.213Z,101188.50
2023-01-23T03:24:32.271Z,101185.75
2023-01-23T03:27:02.380Z,101187.41
2023-01-23T03:29:56.947Z,101184.63
2023-01-23T03:32:28.340Z,101181.31
2023-01-23T03:35:00.264Z,101181.31
2023-01-23T03:37:30.772Z,101166.72
2023-01-23T03:40:20.134Z,101163.38
2023-01-23T03:42:50.569Z,101160.63
2023-01-23T03:45:27.526Z,101161.16
2023-01-23T03:47:57.677Z,101154.81
2023-01-23T03:50:27.877Z,101153.72
2023-01-23T03:52:58.002Z,101154.81
2023-01-23T03:55:28.615Z,101154.81
2023-01-23T03:57:58.704Z,101145.78
2023-01-23T04:00:33.925Z,101149.31
2023-01-23T04:03:08.305Z,101147.09
2023-01-23T04:05:40.595Z,101141.31
2023-01-23T04:08:10.740Z,101151.50
2023-01-23T04:10:40.628Z,101135.81
2023-01-23T04:13:16.857Z,101135.81
2023-01-23T04:15:47.626Z,101137.16
2023-01-23T04:18:18.820Z,101130.84
2023-01-23T04:20:48.832Z,101124.22
2023-01-23T04:23:19.568Z,101118.72
2023-01-23T04:25:50.097Z,101112.91
2023-01-23T04:28:20.843Z,101108.22
2023-01-23T04:30:53.850Z,101108.22
2023-01-23T04:33:31.084Z,101096.41
2023-01-23T04:36:04.045Z,101101.59
2023-01-23T04:38:36.184Z,101093.66
2023-01-23T04:41:28.242Z,101088.47
2023-01-23T04:44:22.123Z,101076.63
2023-01-23T04:47:12.097Z,101070.53
2023-01-23T04:49:42.956Z,101070.53
2023-01-23T04:52:13.269Z,101072.97
2023-01-23T04:54:47.917Z,101055.66
2023-01-23T04:57:18.275Z,101056.19
2023-01-23T04:59:48.684Z,101047.09
2023-01-23T05:02:18.943Z,101046.81
2023-01-23T05:04:49.198Z,101045.69
2023-01-23T05:07:19.408Z,101034.38
2023-01-23T05:10:05.480Z,101024.50
2023-01-23T05:12:36.599Z,101012.38
2023-01-23T05:15:08.471Z,101007.19
2023-01-23T05:17:41.128Z,101008.50
2023-01-23T05:20:12.763Z,100998.28
2023-01-23T05:22:54.398Z,100990.88
2023-01-23T05:25:32.608Z,100982.41
2023-01-23T05:28:04.796Z,100972.72
2023-01-23T05:30:37.243Z,100977.41
2023-01-23T05:33:20.427Z,100973.53
2023-01-23T05:35:50.812Z,100963.38
2023-01-23T05:38:21.655Z,100963.03
2023-01-23T05:40:51.951Z,100954.50
2023-01-23T05:43:41.410Z,100949.00
2023-01-23T05:46:29.735Z,100943.78
2023-01-23T05:48:59.939Z,100931.66
2023-01-23T05:51:34.620Z,100931.06
2023-01-23T05:54:05.698Z,100925.03
2023-01-23T05:56:37.223Z,100919.75
2023-01-23T05:59:25.824Z,100918.94
2023-01-23T06:02:17.247Z,100916.72
2023-01-23T06:05:06.058Z,100895.28
2023-01-23T06:07:54.224Z,100890.59
2023-01-23T06:10:24.438Z,100884.28
2023-01-23T06:12:54.952Z,100885.41
2023-01-23T06:15:25.359Z,100878.78
2023-01-23T06:17:57.864Z,100874.06
2023-01-23T06:20:29.002Z,100867.47
2023-01-23T06:22:59.809Z,100863.91
2023-01-23T06:25:31.172Z,100856.44
2023-01-23T06:28:04.386Z,100855.34
2023-01-23T06:30:37.122Z,100845.97
2023-01-23T06:33:12.812Z,100835.78
2023-01-23T06:35:44.752Z,100842.41
2023-01-23T06:38:14.850Z,100833.53
2023-01-23T06:40:46.939Z,100832.41
2023-01-23T06:43:31.198Z,100824.44
2023-01-23T06:46:01.778Z,100815.09
2023-01-23T06:48:32.156Z,100820.25
2023-01-23T06:51:03.539Z,100813.13
2023-01-23T06:53:33.967Z,100811.22
2023-01-23T06:56:07.337Z,100801.84
2023-01-23T06:58:41.047Z,100801.84
2023-01-23T07:01:21.566Z,100800.72
2023-01-23T07:04:11.775Z,100785.00
2023-01-23T07:06:43.570Z,100784.41
2023-01-23T07:09:16.369Z,100787.66
2023-01-23T07:11:52.948Z,100780.19
2023-01-23T07:14:24.012Z,100776.34
2023-01-23T07:16:57.896Z,100776.03
2023-01-23T07:19:29.036Z,100764.72
2023-01-23T07:22:03.345Z,100766.66
2023-01-23T07:24:35.317Z,100765.22
2023-01-23T07:27:05.611Z,100765.22
2023-01-23T07:29:35.968Z,100756.16
2023-01-23T07:32:06.092Z,100748.41
2023-01-23T07:34:36.298Z,100744.88
2023-01-23T07:37:06.378Z,100746.78
2023-01-23T07:39:36.333Z,100739.88
2023-01-23T07:42:06.373Z,100739.88
2023-01-23T07:44:36.315Z,100736.00
2023-01-23T07:47:06.197Z,100738.44
2023-01-23T07:49:36.127Z,100729.03
2023-01-23T07:52:07.127Z,100732.31
2023-01-23T07:54:37.199Z,100726.81
2023-01-23T07:57:07.213Z,100722.94
2023-01-23T07:59:37.099Z,100714.66
2023-01-23T08:02:07.001Z,100720.19
2023-01-23T08:04:37.009Z,100717.09
2023-01-23T08:07:07.145Z,100716.81
2023-01-23T08:09:37.107Z,100704.47
2023-01-23T08:12:21.582Z,100706.09
2023-01-23T08:14:51.684Z,100705.78
2023-01-23T08:17:21.644Z,100706.91
2023-01-23T08:19:51.906Z,100713.53
2023-01-23T08:22:22.018Z,100718.72
2023-01-23T08:24:51.901Z,100715.69
2023-01-23T08:27:21.914Z,100710.66
2023-01-23T08:29:51.922Z,100714.56
2023-01-23T08:32:21.971Z,100705.47
2023-01-23T08:34:51.870Z,100715.88
2023-01-23T08:37:21.837Z,100709.25
2023-01-23T08:39:51.704Z,100705.66
2023-01-23T08:42:22.047Z,100706.16
2023-01-23T08:44:51.951Z,100709.75
2023-01-23T08:47:21.753Z,100718.00
2023-01-23T08:49:51.745Z,100715.25
2023-01-23T08:52:21.903Z,100716.06
2023-01-23T08:54:52.003Z,100712.50
2023-01-23T08:57:22.000Z,100717.34
2023-01-23T08:59:51.807Z,100722.38
2023-01-23T09:02:21.794Z,100722.38
2023-01-23T09:04:52.575Z,100724.03
2023-01-23T09:07:22.631Z,100716.56
2023-01-23T09:09:52.836Z,100722.88
2023-01-23T09:12:23.000Z,100727.25
2023-01-23T09:14:53.096Z,100727.25
2023-01-23T09:17:23.102Z,100729.72
2023-01-23T09:19:52.983Z,100727.75
2023-01-23T09:22:23.014Z,100736.84
2023-01-23T09:24:53.026Z,100733.78
2023-01-23T09:27:23.388Z,100733.28
2023-01-23T09:29:53.812Z,100723.09
2023-01-23T09:32:23.892Z,100729.38
2023-01-23T09:34:53.811Z,100738.47
2023-01-23T09:37:23.719Z,100736.84
2023-01-23T09:39:53.649Z,100739.59
2023-01-23T09:42:27.905Z,100739.59
2023-01-23T09:45:04.233Z,100738.47
2023-01-23T09:48:20.285Z,100747.88
2023-01-23T09:51:07.947Z,100752.75
2023-01-23T09:53:42.234Z,100748.38
2023-01-23T09:56:41.012Z,100751.59
2023-01-23T09:59:27.077Z,100748.84
2023-01-23T10:01:57.199Z,100747.72
2023-01-23T10:04:27.186Z,100747.44
2023-01-23T10:07:22.558Z,100755.19
2023-01-23T10:09:55.423Z,100749.69
2023-01-23T10:12:54.185Z,100752.44
2023-01-23T10:16:04.566Z,100753.22
2023-01-23T10:18:40.022Z,100763.44
2023-01-23T10:21:37.354Z,100761.50
2023-01-23T10:24:16.476Z,100770.88
2023-01-23T10:26:48.862Z,100771.72
2023-01-23T10:29:37.252Z,100773.63
2023-01-23T10:32:18.896Z,100779.16
2023-01-23T10:35:02.673Z,100774.97
2023-01-23T10:38:14.766Z,100779.97
2023-01-23T10:41:03.082Z,100786.59
2023-01-23T10:43:33.171Z,100787.41
2023-01-23T10:46:03.184Z,100788.75
2023-01-23T10:48:52.596Z,100799.75
2023-01-23T10:51:33.588Z,100802.53
2023-01-23T10:54:31.757Z,100805.56
2023-01-23T10:57:24.160Z,100815.16
2023-01-23T11:00:07.829Z,100819.84
2023-01-23T11:02:42.770Z,100819.84
2023-01-23T11:05:51.627Z,100830.06
2023-01-23T11:08:35.763Z,100829.22
2023-01-23T11:11:25.665Z,100829.22
2023-01-23T11:14:24.895Z,100836.38
2023-01-23T11:17:35.303Z,100838.63
2023-01-23T11:20:34.018Z,100846.06
2023-01-23T11:23:10.829Z,100852.88
2023-01-23T11:25:42.195Z,100859.53
2023-01-23T11:28:50.480Z,100852.88
2023-01-23T11:31:25.239Z,100861.16
2023-01-23T11:33:59.467Z,100854.00
2023-01-23T11:36:39.672Z,100849.63
2023-01-23T11:39:18.960Z,100860.34
2023-01-23T11:41:49.302Z,100856.16
2023-01-23T11:44:25.558Z,100868.63
2023-01-23T11:47:29.916Z,100862.59
2023-01-23T11:50:16.593Z,100867.28
2023-01-23T11:52:55.688Z,100870.03
2023-01-23T11:55:35.088Z,100879.44
2023-01-23T11:58:27.163Z,100879.44
2023-01-23T12:01:23.471Z,100888.81
2023-01-23T12:04:22.298Z,100881.38
2023-01-23T12:06:58.827Z,100890.47
2023-01-23T12:09:52.359Z,100873.63
2023-01-23T12:12:48.361Z,100890.47
2023-01-23T12:15:43.670Z,100889.31
2023-01-23T12:18:51.293Z,100903.91
2023-01-23T12:21:30.035Z,100908.91
2023-01-23T12:24:18.136Z,100903.06
2023-01-23T12:27:02.996Z,100911.34
2023-01-23T12:29:50.996Z,100917.69
2023-01-23T12:32:53.033Z,100916.03
2023-01-23T12:35:36.863Z,100914.41
2023-01-23T12:38:29.998Z,100923.00
2023-01-23T12:41:14.686Z,100921.03
2023-01-23T12:44:32.487Z,100916.38
2023-01-23T12:47:09.127Z,100921.03
2023-01-23T12:50:21.364Z,100924.63
2023-01-23T12:56:21.931Z,100935.75
2023-01-23T12:59:29.253Z,100940.94
2023-01-23T13:02:22.113Z,100944.50
2023-01-23T13:05:16.096Z,100957.47
2023-01-23T13:07:58.467Z,100960.22
2023-01-23T13:10:28.789Z,100966.25
2023-01-23T13:12:59.570Z,100972.88
2023-01-23T13:15:40.673Z,100974.69
2023-01-23T13:18:27.551Z,100980.28
2023-01-23T13:21:20.704Z,100980.00
2023-01-23T13:24:11.194Z,100979.19
2023-01-23T13:26:41.640Z,100985.00
2023-01-23T13:29:51.442Z,100994.91
2023-01-23T13:32:25.415Z,100997.66
2023-01-23T13:34:55.821Z,100998.78
2023-01-23T13:37:31.386Z,100996.53
2023-01-23T13:40:23.445Z,100999.28
2023-01-23T13:42:54.455Z,101005.91
2023-01-23T13:45:32.074Z,101013.06
2023-01-23T14:20:22.743Z,101048.56
2023-01-23T14:22:57.899Z,101050.00
2023-01-23T14:25:28.255Z,101052.75
2023-01-23T14:28:08.723Z,101057.44
2023-01-23T14:30:39.012Z,101055.00
2023-01-23T14:33:20.386Z,101049.16
2023-01-23T14:35:51.315Z,101055.81
2023-01-23T14:38:29.784Z,101061.00
2023-01-23T14:41:00.683Z,101062.13
2023-01-23T14:43:32.233Z,101056.09
2023-01-23T14:46:08.274Z,101057.75
2023-01-23T14:48:43.574Z,101062.66
2023-01-23T14:51:22.541Z,101053.25
2023-01-23T14:54:23.306Z,101054.91
2023-01-23T14:56:55.457Z,101069.19
2023-01-23T14:59:40.171Z,101061.72
2023-01-23T15:02:33.547Z,101067.75
2023-01-23T15:05:15.780Z,101073.88
2023-01-23T15:08:03.582Z,101072.53
2023-01-23T15:10:49.827Z,101075.81
2023-01-23T15:13:26.918Z,101075.31
2023-01-23T15:16:06.396Z,101068.16
2023-01-23T15:18:38.399Z,101069.28
2023-01-23T15:21:10.815Z,101066.53
2023-01-23T15:23:42.970Z,101069.88
2023-01-23T15:26:36.434Z,101069.28
2023-01-23T15:29:22.017Z,101069.59
2023-01-23T15:31:54.424Z,101072.84
2023-01-23T15:34:36.402Z,101076.94
2023-01-23T15:37:12.771Z,101077.22
2023-01-23T15:39:56.391Z,101073.34
2023-01-23T15:42:31.331Z,101076.41
2023-01-23T15:45:05.975Z,101073.66
2023-01-23T15:47:37.585Z,101067.31
2023-01-23T15:50:08.227Z,101068.16
2023-01-23T15:52:49.024Z,101076.41
2023-01-23T15:55:19.527Z,101074.47
2023-01-23T15:57:49.682Z,101069.59
2023-01-23T16:00:22.881Z,101073.94
2023-01-23T16:02:57.701Z,101081.41
2023-01-23T16:05:34.432Z,101076.22
2023-01-23T16:08:05.529Z,101073.16
2023-01-23T16:10:41.437Z,101072.63
2023-01-23T16:13:16.258Z,101073.47
2023-01-23T16:15:46.515Z,101075.38
2023-01-23T16:18:16.870Z,101072.63
2023-01-23T16:20:49.058Z,101071.84
2023-01-23T16:23:31.177Z,101071.84
2023-01-23T16:26:06.243Z,101071.84
2023-01-23T16:28:36.436Z,101066.59
2023-01-23T16:31:06.607Z,101071.31
2023-01-23T16:33:36.812Z,101066.91
2023-01-23T16:36:08.796Z,101068.31
2023-01-23T16:38:39.023Z,101069.16
2023-01-23T16:41:11.891Z,101069.16
2023-01-23T16:43:42.918Z,101070.28
2023-01-23T16:46:13.922Z,101073.84
2023-01-23T16:48:44.082Z,101065.56
2023-01-23T16:51:23.939Z,101072.22
2023-01-23T16:54:05.954Z,101066.72
2023-01-23T16:56:45.144Z,101076.09
2023-01-23T16:59:20.949Z,101070.88
2023-01-23T17:01:53.846Z,101071.72
2023-01-23T17:04:24.906Z,101069.25
2023-01-23T17:06:55.051Z,101072.81
2023-01-23T17:09:25.120Z,101069.84
2023-01-23T17:11:59.683Z,101069.34
2023-01-23T17:14:33.812Z,101065.47
2023-01-23T17:17:12.627Z,101058.63
2023-01-23T17:19:44.345Z,101070.75
2023-01-23T17:22:37.278Z,101061.38
2023-01-23T17:25:19.794Z,101058.34
2023-01-23T17:28:06.982Z,101054.75
2023-01-23T17:30:42.274Z,101052.00
2023-01-23T17:33:25.476Z,101049.56
2023-01-23T17:35:56.652Z,101056.38
2023-01-23T17:38:33.136Z,101053.31
2023-01-23T17:41:03.932Z,101045.69
2023-01-23T17:43:34.115Z,101037.41
2023-01-23T17:46:04.446Z,101045.38
2023-01-23T17:48:39.292Z,101039.88
2023-01-23T17:51:18.835Z,101037.09
2023-01-23T17:56:34.933Z,101028.31
2023-01-23T17:59:04.985Z,101026.69
2023-01-23T18:01:34.956Z,101025.56
2023-01-23T18:04:05.098Z,101030.88
2023-01-23T18:06:35.284Z,101030.28
2023-01-23T18:09:05.432Z,101017.44
2023-01-23T18:11:35.938Z,101018.75
2023-01-23T18:14:54.132Z,101020.38
2023-01-23T18:17:56.527Z,101020.38
2023-01-23T18:20:27.637Z,101021.59
2023-01-23T18:22:58.833Z,101022.63
2023-01-23T18:25:29.713Z,101017.13
2023-01-23T18:28:08.113Z,101017.91
2023-01-23T18:30:44.183Z,101013.03
2023-01-23T18:33:29.301Z,101000.38
2023-01-23T18:36:31.407Z,101003.16
2023-01-23T18:39:12.012Z,101000.69
2023-01-23T18:41:52.657Z,101005.91
2023-01-23T18:44:29.240Z,101007.63
2023-01-23T18:46:59.538Z,100996.59
2023-01-23T18:49:33.003Z,100997.19
2023-01-23T18:52:03.884Z,100994.97
2023-01-23T18:54:46.853Z,100989.47
2023-01-23T18:57:49.813Z,100996.09
2023-01-23T19:00:47.089Z,100993.34
2023-01-23T19:03:19.911Z,100986.72
2023-01-23T19:05:50.307Z,100977.34
2023-01-23T19:08:33.882Z,100982.31
2023-01-23T19:11:11.478Z,100983.63
2023-01-23T19:13:54.131Z,100976.28
2023-01-23T19:16:32.616Z,100982.63
2023-01-23T19:19:25.751Z,100979.56
2023-01-23T19:21:56.080Z,100982.91
2023-01-23T19:24:27.671Z,100977.41
2023-01-23T19:26:58.785Z,100971.38
2023-01-23T19:29:29.034Z,100969.75
2023-01-23T19:32:05.147Z,100973.63
2023-01-23T19:34:36.592Z,100967.00
2023-01-23T19:37:07.191Z,100967.09
2023-01-23T19:39:37.197Z,100969.75
2023-01-23T19:42:07.489Z,100971.16
2023-01-23T19:44:37.409Z,100962.63
2023-01-23T19:47:08.919Z,100958.75
2023-01-23T19:49:39.137Z,100956.88
2023-01-23T19:52:09.302Z,100957.09
2023-01-23T19:54:39.189Z,100955.16
2023-01-23T19:57:09.555Z,100941.72
2023-01-23T19:59:39.688Z,100949.13
2023-01-23T20:02:22.882Z,100946.91
2023-01-23T20:04:54.722Z,100943.34
2023-01-23T20:07:24.976Z,100932.34
2023-01-23T20:09:55.155Z,100945.59
2023-01-23T20:12:25.114Z,100939.84
2023-01-23T20:14:55.242Z,100943.44
2023-01-23T20:17:25.631Z,100948.41
2023-01-23T20:19:55.759Z,100945.34
2023-01-23T20:22:25.663Z,100941.78
2023-01-23T20:24:55.486Z,100940.75
2023-01-23T20:27:25.584Z,100948.41
2023-01-23T20:29:55.617Z,100945.16
2023-01-23T20:32:25.712Z,100942.72
2023-01-23T20:34:57.644Z,100945.16
2023-01-23T20:37:28.650Z,100946.25
2023-01-23T20:39:58.786Z,100944.84
2023-01-23T20:42:28.741Z,100952.09
2023-01-23T20:44:58.774Z,100956.25
2023-01-23T20:47:29.540Z,100952.38
2023-01-23T20:49:59.622Z,100954.63
2023-01-23T20:52:47.690Z,100950.13
2023-01-23T20:55:17.888Z,100949.94
2023-01-23T20:58:06.079Z,100950.13
2023-01-23T21:00:36.085Z,100956.56
2023-01-23T21:03:06.204Z,100967.25
2023-01-23T21:05:36.233Z,100963.16
2023-01-23T21:08:06.146Z,100957.06
2023-01-23T21:10:36.060Z,100968.88
2023-01-23T21:13:06.071Z,100966.44
2023-01-23T21:15:35.934Z,100967.88
2023-01-23T21:18:05.929Z,100975.00
2023-01-23T21:20:35.977Z,100973.38
2023-01-23T21:23:05.931Z,100972.84
2023-01-23T21:25:38.095Z,100976.66
2023-01-23T21:28:08.193Z,100974.78
2023-01-23T21:30:41.085Z,100980.28
2023-01-23T21:33:11.204Z,100978.06
2023-01-23T21:35:41.264Z,100977.00
2023-01-23T21:38:11.086Z,100980.59
2023-01-23T21:40:40.997Z,100984.97
2023-01-23T21:43:10.977Z,100982.03
2023-01-23T21:45:40.935Z,100981.13
2023-01-23T21:48:10.909Z,100984.78
2023-01-23T21:50:40.819Z,100978.66
2023-01-23T21:53:10.739Z,100983.34
2023-01-23T21:55:40.649Z,100977.84
2023-01-23T21:58:10.705Z,100986.09
2023-01-23T22:00:58.962Z,100992.72
2023-01-23T22:03:29.043Z,100986.09
2023-01-23T22:06:01.894Z,100997.69
2023-01-23T22:08:31.883Z,101005.69
2023-01-23T22:11:01.760Z,100998.28
2023-01-23T22:13:31.914Z,101010.13
2023-01-23T22:16:02.627Z,101011.47
2023-01-23T22:18:33.427Z,101009.81
2023-01-23T22:21:06.310Z,101012.28
2023-01-23T22:23:36.870Z,101013.94
2023-01-23T22:26:09.613Z,101015.84
2023-01-23T22:28:39.744Z,101016.16
2023-01-23T22:31:13.087Z,101012.06
2023-01-23T22:33:46.048Z,101025.22
2023-01-23T22:36:20.008Z,101023.00
2023-01-23T22:38:54.448Z,101027.97
2023-01-23T22:41:25.384Z,101023.59
2023-01-23T22:44:01.425Z,101029.09
2023-01-23T22:46:31.769Z,101026.53
2023-01-23T22:49:01.974Z,101038.25
2023-01-23T22:54:08.305Z,101038.25
2023-01-23T22:56:38.590Z,101038.63
2023-01-23T22:59:08.735Z,101043.09
2023-01-23T23:01:38.809Z,101043.25
2023-01-23T23:04:08.675Z,101045.16
2023-01-23T23:06:38.643Z,101047.19
2023-01-23T23:09:08.748Z,101045.84
2023-01-23T23:11:39.585Z,101049.13
2023-01-23T23:14:09.707Z,101055.94
2023-01-23T23:16:39.636Z,101064.72
2023-01-23T23:19:09.519Z,101066.38
2023-01-23T23:21:40.458Z,101078.47
2023-01-23T23:24:14.707Z,101081.22
2023-01-23T23:26:44.877Z,101082.88
2023-01-23T23:29:14.715Z,101082.03
2023-01-23T23:31:44.944Z,101084.50
2023-01-23T23:34:15.093Z,101084.78
2023-01-23T23:36:45.291Z,101098.03
2023-01-23T23:39:15.835Z,101097.22
2023-01-23T23:41:45.901Z,101096.41
2023-01-23T23:44:15.880Z,101105.19
2023-01-23T23:46:45.847Z,101098.03
2023-01-23T23:49:15.809Z,101110.44
2023-01-23T23:51:45.720Z,101109.84
2023-01-23T23:54:15.613Z,101115.34
2023-01-23T23:56:45.817Z,101115.13
2023-01-23T23:59:19.531Z,101118.47
